createdAt,value
2023-01-15T00:00:01.163Z,94316.28
2023-01-15T00:02:32.388Z,94311.06
2023-01-15T00:05:02.973Z,94305.84
2023-01-15T00:07:30.745Z,94309.25
2023-01-15T00:09:58.405Z,94292.63
2023-01-15T00:12:26.032Z,94290.00
2023-01-15T00:14:53.747Z,94282.16
2023-01-15T00:17:21.451Z,94284.78
2023-01-15T00:19:50.479Z,94282.16
2023-01-15T00:22:18.120Z,94280.53
2023-01-15T00:25:03.512Z,94277.91
2023-01-15T00:27:40.302Z,94273.69
2023-01-15T00:30:10.334Z,94277.13
2023-01-15T00:32:38.010Z,94272.88
2023-01-15T00:35:08.458Z,94267.66
2023-01-15T00:37:36.053Z,94265.22
2023-01-15T00:40:03.866Z,94260.00
2023-01-15T00:42:31.504Z,94260.81
2023-01-15T00:44:59.149Z,94249.56
2023-01-15T00:47:27.239Z,94258.38
2023-01-15T00:49:54.845Z,94254.94
2023-01-15T00:52:23.859Z,94262.78
2023-01-15T00:54:51.521Z,94255.75
2023-01-15T00:57:19.116Z,94260.16
2023-01-15T00:59:46.798Z,94247.09
2023-01-15T01:02:14.783Z,94262.78
2023-01-15T01:04:42.482Z,94252.50
2023-01-15T01:07:10.171Z,94251.53
2023-01-15T01:09:39.184Z,94241.88
2023-01-15T01:12:07.013Z,94235.88
2023-01-15T01:14:34.692Z,94235.88
2023-01-15T01:17:02.343Z,94239.28
2023-01-15T01:19:29.999Z,94242.88
2023-01-15T01:21:57.781Z,94243.72
2023-01-15T01:24:26.065Z,94234.22
2023-01-15T01:26:55.902Z,94229.84
2023-01-15T01:29:24.629Z,94219.38
2023-01-15T01:31:52.576Z,94221.19
2023-01-15T01:34:20.787Z,94202.09
2023-01-15T01:36:48.424Z,94199.31
2023-01-15T01:39:18.289Z,94194.25
2023-01-15T01:41:47.262Z,94189.03
2023-01-15T01:44:52.662Z,94190.66
2023-01-15T01:47:25.821Z,94174.19
2023-01-15T01:49:58.016Z,94170.75
2023-01-15T01:52:32.160Z,94165.53
2023-01-15T01:55:01.084Z,94162.94
2023-01-15T01:57:28.868Z,94158.72
2023-01-15T01:59:58.025Z,94143.88
2023-01-15T02:02:27.262Z,94140.25
2023-01-15T02:04:55.193Z,94132.59
2023-01-15T02:07:22.852Z,94135.22
2023-01-15T02:09:50.536Z,94129.00
2023-01-15T02:12:23.584Z,94137.63
2023-01-15T02:15:00.034Z,94127.19
2023-01-15T02:17:35.305Z,94125.41
2023-01-15T02:20:25.710Z,94114.31
2023-01-15T02:23:08.243Z,94115.16
2023-01-15T02:25:52.978Z,94120.38
2023-01-15T02:28:26.825Z,94114.31
2023-01-15T02:31:01.042Z,94104.72
2023-01-15T02:33:34.276Z,94106.50
2023-01-15T02:36:02.210Z,94105.69
2023-01-15T02:38:33.636Z,94094.41
2023-01-15T02:41:03.979Z,94103.06
2023-01-15T02:43:36.999Z,94103.88
2023-01-15T02:46:06.132Z,94096.88
2023-01-15T02:48:37.478Z,94086.59
2023-01-15T02:51:10.310Z,94083.81
2023-01-15T02:53:42.600Z,94088.22
2023-01-15T02:56:14.233Z,94086.44
2023-01-15T02:58:45.093Z,94083.00
2023-01-15T03:01:16.782Z,94076.00
2023-01-15T03:03:52.956Z,94070.78
2023-01-15T03:06:27.071Z,94069.13
2023-01-15T03:08:54.996Z,94059.50
2023-01-15T03:11:22.610Z,94061.94
2023-01-15T03:13:56.900Z,94058.50
2023-01-15T03:16:38.129Z,94053.47
2023-01-15T03:19:25.401Z,94044.66
2023-01-15T03:21:57.692Z,94046.47
2023-01-15T03:24:32.989Z,94040.22
2023-01-15T03:27:01.540Z,94028.19
2023-01-15T03:29:34.950Z,94036.00
2023-01-15T03:32:03.808Z,94032.59
2023-01-15T03:34:38.048Z,94042.06
2023-01-15T03:37:05.973Z,94021.31
2023-01-15T03:39:34.577Z,94026.38
2023-01-15T03:42:16.631Z,94025.56
2023-01-15T03:44:53.715Z,94027.38
2023-01-15T03:47:34.282Z,94011.69
2023-01-15T03:50:07.926Z,94029.97
2023-01-15T03:52:43.154Z,94017.94
2023-01-15T03:55:15.335Z,94016.09
2023-01-15T03:57:49.768Z,94022.97
2023-01-15T04:00:23.604Z,94010.09
2023-01-15T04:02:54.272Z,93999.47
2023-01-15T04:05:23.045Z,94001.25
2023-01-15T04:07:52.571Z,93997.81
2023-01-15T04:10:20.206Z,94003.88
2023-01-15T04:12:47.849Z,93996.84
2023-01-15T04:15:15.851Z,93997.69
2023-01-15T04:17:44.898Z,93991.63
2023-01-15T04:20:13.563Z,93990.63
2023-01-15T04:22:41.283Z,93990.81
2023-01-15T04:25:09.998Z,93994.25
2023-01-15T04:27:37.836Z,93988.22
2023-01-15T04:30:06.298Z,93988.22
2023-01-15T04:32:33.963Z,93989.03
2023-01-15T04:35:02.959Z,93985.59
2023-01-15T04:37:30.605Z,93966.50
2023-01-15T04:39:58.255Z,93972.53
2023-01-15T04:42:54.738Z,93961.28
2023-01-15T04:45:22.362Z,93966.50
2023-01-15T04:47:49.959Z,93968.31
2023-01-15T04:50:19.143Z,93963.91
2023-01-15T04:52:46.781Z,93966.50
2023-01-15T04:55:14.392Z,93960.31
2023-01-15T04:57:42.013Z,93969.94
2023-01-15T05:00:11.003Z,93964.72
2023-01-15T05:02:38.707Z,93961.28
2023-01-15T05:05:06.901Z,93965.53
2023-01-15T05:07:35.898Z,93955.09
2023-01-15T05:10:03.541Z,93953.28
2023-01-15T05:12:31.217Z,93949.88
2023-01-15T05:14:58.889Z,93967.94
2023-01-15T05:17:26.709Z,93972.19
2023-01-15T05:19:54.312Z,93978.22
2023-01-15T05:22:22.312Z,93980.81
2023-01-15T05:24:52.215Z,93972.00
2023-01-15T05:27:19.879Z,93978.88
2023-01-15T05:29:47.947Z,93969.22
2023-01-15T05:32:15.592Z,93952.75
2023-01-15T05:34:43.264Z,93946.53
2023-01-15T05:37:10.919Z,93948.16
2023-01-15T05:39:38.564Z,93948.16
2023-01-15T05:42:07.888Z,93944.75
2023-01-15T05:44:35.567Z,93935.13
2023-01-15T05:47:05.932Z,93928.88
2023-01-15T05:49:33.712Z,93940.16
2023-01-15T05:52:02.641Z,93955.63
2023-01-15T05:54:32.785Z,93945.19
2023-01-15T05:57:01.406Z,93942.56
2023-01-15T05:59:32.669Z,93953.00
2023-01-15T06:02:00.947Z,93947.78
2023-01-15T06:04:28.556Z,93954.03
2023-01-15T06:06:57.110Z,93946.28
2023-01-15T06:09:25.489Z,93943.81
2023-01-15T06:11:54.025Z,93939.63
2023-01-15T06:14:22.153Z,93936.19
2023-01-15T06:16:51.372Z,93944.00
2023-01-15T06:19:19.188Z,93945.81
2023-01-15T06:21:46.914Z,93946.00
2023-01-15T06:24:16.583Z,93947.78
2023-01-15T06:26:44.386Z,93942.56
2023-01-15T06:29:12.032Z,93942.56
2023-01-15T06:31:39.905Z,93946.81
2023-01-15T06:34:08.923Z,93950.41
2023-01-15T06:36:36.539Z,93949.44
2023-01-15T06:39:05.370Z,93946.81
2023-01-15T06:41:50.785Z,93942.41
2023-01-15T06:44:42.417Z,93951.03
2023-01-15T06:47:24.840Z,93948.59
2023-01-15T06:49:56.440Z,93946.00
2023-01-15T06:52:24.902Z,93947.00
2023-01-15T06:54:53.241Z,93935.75
2023-01-15T06:57:21.224Z,93926.13
2023-01-15T06:59:48.881Z,93939.97
2023-01-15T07:02:17.909Z,93940.78
2023-01-15T07:04:45.663Z,93936.56
2023-01-15T07:07:15.947Z,93937.34
2023-01-15T07:09:43.616Z,93937.34
2023-01-15T07:12:11.463Z,93945.19
2023-01-15T07:14:39.125Z,93939.97
2023-01-15T07:17:06.870Z,93933.94
2023-01-15T07:19:34.524Z,93935.56
2023-01-15T07:22:02.185Z,93927.72
2023-01-15T07:24:31.311Z,93938.78
2023-01-15T07:26:59.012Z,93923.31
2023-01-15T07:29:26.805Z,93939.81
2023-01-15T07:31:54.641Z,93931.97
2023-01-15T07:34:22.317Z,93941.41
2023-01-15T07:36:49.958Z,93930.97
2023-01-15T07:39:17.600Z,93948.41
2023-01-15T07:42:03.919Z,93942.41
2023-01-15T07:44:49.278Z,93949.22
2023-01-15T07:47:37.681Z,93963.28
2023-01-15T07:50:07.073Z,93961.47
2023-01-15T07:52:34.831Z,93963.28
2023-01-15T07:55:03.985Z,93959.88
2023-01-15T07:57:33.164Z,93955.47
2023-01-15T08:00:01.233Z,93951.84
2023-01-15T08:02:29.070Z,93962.28
2023-01-15T08:04:56.909Z,93951.84
2023-01-15T08:07:24.924Z,93945.03
2023-01-15T08:09:52.525Z,93953.63
2023-01-15T08:12:37.688Z,93951.84
2023-01-15T08:15:14.303Z,93955.28
2023-01-15T08:17:43.926Z,93957.69
2023-01-15T08:20:14.470Z,93948.25
2023-01-15T08:22:42.163Z,93950.88
2023-01-15T08:25:12.631Z,93955.28
2023-01-15T08:27:41.412Z,93948.06
2023-01-15T08:30:13.471Z,93953.19
2023-01-15T08:32:41.128Z,93940.69
2023-01-15T08:35:09.498Z,93937.63
2023-01-15T08:37:37.787Z,93950.88
2023-01-15T08:40:06.339Z,93941.59
2023-01-15T08:42:34.058Z,93940.97
2023-01-15T08:45:01.725Z,93939.16
2023-01-15T08:47:31.933Z,93919.25
2023-01-15T08:49:59.576Z,93921.88
2023-01-15T08:52:27.233Z,93922.84
2023-01-15T08:54:54.884Z,93918.63
2023-01-15T08:57:22.494Z,93917.81
2023-01-15T08:59:50.137Z,93917.19
2023-01-15T09:02:18.363Z,93909.34
2023-01-15T09:04:47.370Z,93895.06
2023-01-15T09:07:15.086Z,93891.44
2023-01-15T09:09:42.723Z,93901.09
2023-01-15T09:12:10.349Z,93891.44
2023-01-15T09:14:59.343Z,93897.66
2023-01-15T09:17:25.576Z,93878.38
2023-01-15T09:19:54.696Z,93882.00
2023-01-15T09:22:22.310Z,93868.94
2023-01-15T09:24:50.735Z,93868.13
2023-01-15T09:27:18.416Z,93859.31
2023-01-15T09:29:46.029Z,93858.31
2023-01-15T09:32:14.424Z,93850.47
2023-01-15T09:34:42.109Z,93852.91
2023-01-15T09:37:11.147Z,93852.91
2023-01-15T09:39:38.837Z,93841.47
2023-01-15T09:42:20.401Z,93836.25
2023-01-15T09:45:06.427Z,93826.63
2023-01-15T09:47:37.807Z,93823.00
2023-01-15T09:50:25.091Z,93830.84
2023-01-15T09:53:11.541Z,93832.69
2023-01-15T09:55:46.528Z,93837.91
2023-01-15T09:58:16.315Z,93845.06
2023-01-15T10:00:46.916Z,93864.16
2023-01-15T10:03:26.966Z,93872.81
2023-01-15T10:06:02.409Z,93901.34
2023-01-15T10:08:34.719Z,93902.16
2023-01-15T10:11:06.591Z,93919.44
2023-01-15T10:13:42.472Z,93981.09
2023-01-15T10:16:11.997Z,94005.22
2023-01-15T10:18:42.690Z,94033.94
2023-01-15T10:21:29.671Z,94072.84
2023-01-15T10:24:06.145Z,94083.97
2023-01-15T10:26:38.000Z,94100.34
2023-01-15T10:29:15.416Z,94111.31
2023-01-15T10:31:51.327Z,94103.19
2023-01-15T10:34:52.744Z,94138.81
2023-01-15T10:37:27.252Z,94147.50
2023-01-15T10:40:14.617Z,94159.59
2023-01-15T10:42:50.949Z,94145.94
2023-01-15T10:45:22.521Z,94152.13
2023-01-15T10:47:56.851Z,94149.50
2023-01-15T10:50:26.213Z,94145.16
2023-01-15T10:53:07.450Z,94157.56
2023-01-15T10:55:40.943Z,94158.41
2023-01-15T10:58:15.565Z,94158.09
2023-01-15T11:00:51.456Z,94158.28
2023-01-15T11:03:24.173Z,94162.19
2023-01-15T11:05:51.836Z,94161.38
2023-01-15T11:09:06.403Z,94172.50
2023-01-15T11:11:44.522Z,94173.72
2023-01-15T11:14:29.812Z,94161.47
2023-01-15T11:17:15.129Z,94160.81
2023-01-15T11:19:45.074Z,94157.50
2023-01-15T11:22:15.625Z,94147.38
2023-01-15T11:24:48.766Z,94146.72
2023-01-15T11:27:20.773Z,94163.66
2023-01-15T11:29:54.073Z,94161.69
2023-01-15T11:32:28.292Z,94164.94
2023-01-15T11:34:56.877Z,94181.06
2023-01-15T11:37:24.726Z,94190.19
2023-01-15T11:39:57.334Z,94197.50
2023-01-15T11:42:44.009Z,94198.31
2023-01-15T11:45:34.934Z,94215.75
2023-01-15T11:48:20.773Z,94219.19
2023-01-15T11:50:53.231Z,94236.28
2023-01-15T11:53:23.748Z,94247.53
2023-01-15T11:55:53.993Z,94247.38
2023-01-15T11:58:24.959Z,94239.53
2023-01-15T12:00:55.116Z,94249.81
2023-01-15T12:03:26.663Z,94257.66
2023-01-15T12:06:00.174Z,94273.91
2023-01-15T12:08:42.201Z,94277.50
2023-01-15T12:11:27.104Z,94289.75
2023-01-15T12:14:09.465Z,94285.34
2023-01-15T12:16:46.550Z,94295.94
2023-01-15T12:19:25.101Z,94293.31
2023-01-15T12:22:06.765Z,94298.53
2023-01-15T12:24:51.908Z,94303.94
2023-01-15T12:27:38.443Z,94309.81
2023-01-15T12:30:20.848Z,94315.03
2023-01-15T12:32:54.059Z,94312.41
2023-01-15T12:36:09.478Z,94315.03
2023-01-15T12:39:17.243Z,94320.25
2023-01-15T12:42:32.315Z,94319.28
2023-01-15T12:45:38.898Z,94317.47
2023-01-15T12:49:16.922Z,94326.94
2023-01-15T12:56:04.513Z,94347.00
2023-01-15T12:59:27.306Z,94347.81
2023-01-15T13:02:51.339Z,94348.63
2023-01-15T13:05:31.697Z,94354.69
2023-01-15T13:08:20.815Z,94349.47
2023-01-15T13:11:16.197Z,94363.47
2023-01-15T13:25:09.498Z,94386.81
2023-01-15T13:50:17.080Z,94443.09
2023-01-15T13:53:40.643Z,94450.09
2023-01-15T13:57:16.587Z,94455.31
2023-01-15T14:37:48.962Z,94521.91
2023-01-15T14:40:23.415Z,94536.59
2023-01-15T14:43:04.922Z,94539.19
2023-01-15T14:45:36.190Z,94546.84
2023-01-15T14:48:05.955Z,94551.28
2023-01-15T14:50:42.082Z,94556.50
2023-01-15T14:53:32.724Z,94561.72
2023-01-15T14:56:14.415Z,94550.28
2023-01-15T14:58:49.985Z,94549.47
2023-01-15T15:01:28.745Z,94551.28
2023-01-15T15:04:00.193Z,94556.34
2023-01-15T15:06:29.193Z,94550.28
2023-01-15T15:09:02.950Z,94556.34
2023-01-15T15:11:57.079Z,94550.28
2023-01-15T15:14:27.395Z,94557.16
2023-01-15T15:16:58.626Z,94551.94
2023-01-15T15:19:30.318Z,94549.31
2023-01-15T15:22:00.758Z,94536.28
2023-01-15T15:24:35.065Z,94517.16
2023-01-15T15:27:15.373Z,94495.31
2023-01-15T15:29:43.216Z,94517.16
2023-01-15T15:32:16.293Z,94512.78
2023-01-15T15:34:48.255Z,94512.78
2023-01-15T15:37:18.845Z,94522.38
2023-01-15T15:39:53.995Z,94534.63
2023-01-15T15:42:43.700Z,94538.06
2023-01-15T15:45:36.541Z,94537.22
2023-01-15T15:48:30.932Z,94547.69
2023-01-15T15:50:58.763Z,94545.88
2023-01-15T15:53:26.501Z,94551.94
2023-01-15T15:55:57.852Z,94551.13
2023-01-15T15:58:31.045Z,94552.91
2023-01-15T16:00:58.809Z,94547.69
2023-01-15T16:03:31.178Z,94542.47
2023-01-15T16:06:02.461Z,94543.28
2023-01-15T16:08:31.119Z,94543.28
2023-01-15T16:11:02.464Z,94533.81
2023-01-15T16:13:34.259Z,94532.84
2023-01-15T16:16:04.480Z,94531.19
2023-01-15T16:18:35.838Z,94528.44
2023-01-15T16:21:03.908Z,94535.44
2023-01-15T16:23:31.892Z,94545.72
2023-01-15T16:26:06.142Z,94544.09
2023-01-15T16:28:41.570Z,94540.50
2023-01-15T16:31:09.786Z,94541.31
2023-01-15T16:33:38.613Z,94547.53
2023-01-15T16:36:07.985Z,94542.13
2023-01-15T16:38:40.916Z,94543.09
2023-01-15T16:41:19.385Z,94550.78
2023-01-15T16:43:52.666Z,94549.78
2023-01-15T16:46:22.474Z,94541.66
2023-01-15T16:48:50.341Z,94545.09
2023-01-15T16:51:43.133Z,94539.03
2023-01-15T16:54:42.811Z,94536.41
2023-01-15T16:57:35.969Z,94534.63
2023-01-15T17:00:07.657Z,94545.09
2023-01-15T17:02:45.476Z,94538.22
2023-01-15T17:05:21.885Z,94535.59
2023-01-15T17:07:51.531Z,94544.41
2023-01-15T17:10:24.358Z,94540.81
2023-01-15T17:12:56.115Z,94539.19
2023-01-15T17:15:36.700Z,94539.19
2023-01-15T17:18:26.774Z,94538.22
2023-01-15T17:20:54.518Z,94536.56
2023-01-15T17:23:26.221Z,94533.16
2023-01-15T17:25:54.147Z,94536.56
2023-01-15T17:28:24.519Z,94541.00
2023-01-15T17:30:53.888Z,94541.00
2023-01-15T17:33:22.606Z,94544.56
2023-01-15T17:35:50.257Z,94549.63
2023-01-15T17:38:18.686Z,94548.00
2023-01-15T17:40:47.013Z,94546.22
2023-01-15T17:43:16.006Z,94551.44
2023-01-15T17:45:45.369Z,94553.22
2023-01-15T17:48:13.497Z,94551.44
2023-01-15T17:50:42.213Z,94548.00
2023-01-15T17:53:09.919Z,94549.78
2023-01-15T17:55:55.249Z,94551.44
2023-01-15T17:58:40.519Z,94554.06
2023-01-15T18:01:34.430Z,94556.66
2023-01-15T18:04:21.056Z,94550.63
2023-01-15T18:06:52.670Z,94562.69
2023-01-15T18:09:22.531Z,94551.44
2023-01-15T18:11:50.204Z,94550.63
2023-01-15T18:14:17.830Z,94552.22
2023-01-15T18:16:46.932Z,94556.66
2023-01-15T18:19:14.566Z,94549.63
2023-01-15T18:21:42.613Z,94552.41
2023-01-15T18:24:11.898Z,94550.63
2023-01-15T18:26:40.648Z,94543.25
2023-01-15T18:29:09.307Z,94540.81
2023-01-15T18:31:38.714Z,94547.66
2023-01-15T18:34:07.998Z,94546.63
2023-01-15T18:36:36.529Z,94557.22
2023-01-15T18:39:06.592Z,94551.69
2023-01-15T18:41:52.648Z,94550.25
2023-01-15T18:44:39.054Z,94555.69
2023-01-15T18:47:12.083Z,94552.59
2023-01-15T18:49:42.502Z,94553.06
2023-01-15T18:52:29.618Z,94557.78
2023-01-15T18:54:57.278Z,94554.72
2023-01-15T18:57:25.398Z,94566.16
2023-01-15T18:59:53.371Z,94570.03
2023-01-15T19:02:22.121Z,94560.09
2023-01-15T19:04:51.258Z,94559.44
2023-01-15T19:07:19.320Z,94567.28
2023-01-15T19:09:46.942Z,94563.88
2023-01-15T19:12:16.935Z,94563.88
2023-01-15T19:15:02.152Z,94563.69
2023-01-15T19:17:47.373Z,94565.66
2023-01-15T19:20:19.371Z,94562.88
2023-01-15T19:23:05.854Z,94572.50
2023-01-15T19:25:38.758Z,94569.72
2023-01-15T19:28:07.565Z,94562.22
2023-01-15T19:30:37.404Z,94560.75
2023-01-15T19:33:05.652Z,94554.06
2023-01-15T19:35:35.551Z,94549.81
2023-01-15T19:38:03.284Z,94547.22
2023-01-15T19:40:36.285Z,94542.81
2023-01-15T19:43:21.372Z,94537.59
2023-01-15T19:46:06.747Z,94538.41
2023-01-15T19:48:52.647Z,94526.16
2023-01-15T19:51:21.713Z,94520.94
2023-01-15T19:53:49.424Z,94515.72
2023-01-15T19:56:17.034Z,94510.34
2023-01-15T19:58:44.673Z,94505.94
2023-01-15T20:01:16.721Z,94506.44
2023-01-15T20:03:46.232Z,94507.72
2023-01-15T20:06:13.862Z,94498.59
2023-01-15T20:08:42.825Z,94498.28
2023-01-15T20:11:10.723Z,94495.31
2023-01-15T20:13:52.049Z,94498.56
2023-01-15T20:16:22.261Z,94489.59
2023-01-15T20:18:50.064Z,94490.41
2023-01-15T20:21:17.683Z,94493.19
2023-01-15T20:23:46.741Z,94485.00
2023-01-15T20:26:15.499Z,94485.19
2023-01-15T20:28:47.094Z,94473.09
2023-01-15T20:31:16.332Z,94473.94
2023-01-15T20:33:43.940Z,94462.84
2023-01-15T20:36:11.576Z,94467.72
2023-01-15T20:38:39.184Z,94464.31
2023-01-15T20:41:26.767Z,94472.97
2023-01-15T20:44:12.022Z,94468.53
2023-01-15T20:46:39.774Z,94463.31
2023-01-15T20:49:24.973Z,94463.16
2023-01-15T20:51:53.141Z,94459.53
2023-01-15T20:54:21.168Z,94466.59
2023-01-15T20:56:50.153Z,94462.34
2023-01-15T20:59:17.807Z,94443.22
2023-01-15T21:01:45.621Z,94442.56
2023-01-15T21:04:13.818Z,94446.13
2023-01-15T21:06:41.593Z,94440.91
2023-01-15T21:09:09.252Z,94442.69
2023-01-15T21:11:37.022Z,94443.88
2023-01-15T21:14:06.041Z,94448.28
2023-01-15T21:16:33.759Z,94450.06
2023-01-15T21:19:04.378Z,94447.63
2023-01-15T21:21:32.189Z,94438.97
2023-01-15T21:24:00.892Z,94441.78
2023-01-15T21:26:28.850Z,94430.50
2023-01-15T21:28:56.950Z,94434.06
2023-01-15T21:31:26.153Z,94424.47
2023-01-15T21:33:54.120Z,94421.03
2023-01-15T21:36:22.216Z,94421.03
2023-01-15T21:38:51.364Z,94411.56
2023-01-15T21:41:18.986Z,94411.56
2023-01-15T21:44:04.415Z,94412.41
2023-01-15T21:46:34.100Z,94411.56
2023-01-15T21:49:01.725Z,94414.19
2023-01-15T21:51:30.564Z,94405.53
2023-01-15T21:54:00.063Z,94401.13
2023-01-15T21:56:28.138Z,94401.97
2023-01-15T21:58:55.763Z,94391.66
2023-01-15T22:01:23.471Z,94389.03
2023-01-15T22:03:52.467Z,94386.44
2023-01-15T22:06:20.091Z,94379.41
2023-01-15T22:08:47.699Z,94368.97
2023-01-15T22:11:15.385Z,94362.94
2023-01-15T22:13:43.039Z,94369.97
2023-01-15T22:16:10.720Z,94366.53
2023-01-15T22:18:38.353Z,94369.97
2023-01-15T22:21:08.539Z,94361.31
2023-01-15T22:23:36.341Z,94363.94
2023-01-15T22:26:04.020Z,94350.88
2023-01-15T22:28:31.650Z,94345.66
2023-01-15T22:30:59.292Z,94340.44
2023-01-15T22:33:26.926Z,94325.75
2023-01-15T22:35:58.900Z,94327.38
2023-01-15T22:38:28.603Z,94322.97
2023-01-15T22:40:59.222Z,94316.13
2023-01-15T22:43:26.956Z,94319.53
2023-01-15T22:45:54.622Z,94319.53
2023-01-15T22:48:22.355Z,94315.28
2023-01-15T22:50:50.090Z,94309.09
2023-01-15T22:53:17.726Z,94302.25
2023-01-15T22:55:46.673Z,94294.41
2023-01-15T22:58:14.283Z,94296.06
2023-01-15T23:00:41.926Z,94297.84
2023-01-15T23:03:09.610Z,94287.56
2023-01-15T23:05:39.020Z,94289.38
2023-01-15T23:08:07.546Z,94279.75
2023-01-15T23:10:35.217Z,94272.88
2023-01-15T23:13:04.269Z,94268.47
2023-01-15T23:15:32.020Z,94268.47
2023-01-15T23:17:59.766Z,94252.00
2023-01-15T23:20:27.377Z,94251.03
2023-01-15T23:22:55.137Z,94247.59
2023-01-15T23:25:23.233Z,94250.19
2023-01-15T23:27:50.895Z,94244.97
2023-01-15T23:30:20.024Z,94236.31
2023-01-15T23:32:47.640Z,94237.16
2023-01-15T23:35:15.313Z,94233.72
2023-01-15T23:37:42.964Z,94236.31
2023-01-15T23:40:11.495Z,94220.66
2023-01-15T23:42:56.884Z,94215.44
2023-01-15T23:45:43.427Z,94218.88
2023-01-15T23:48:11.074Z,94208.44
2023-01-15T23:50:38.743Z,94208.44
2023-01-15T23:53:06.393Z,94201.56
2023-01-15T23:55:34.189Z,94194.56
2023-01-15T23:58:01.797Z,94198.97
